Time;durP1;ratioP1;P1;durP2;ratioP2;P2;SDS_P1;SDS_P2;PMS_P1;PMS_P2;Temp;Humidity;BMP_temperature;BMP_pressure;BME280_temperature;BME280_humidity;BME280_pressure;Samples;Min_cycle;Max_cycle;Signal;HPM_P1;HPM_P2
2022/12/23 00:00:32;;;;;;;;;;;6.90;93.00;;;;;;5072907;28;20036;-88
2022/12/23 00:02:58;;;;;;;;;;;7.10;92.70;;;;;;5072901;28;19985;-88
2022/12/23 00:05:23;;;;;;;;;;;7.10;92.20;;;;;;5072177;28;19987;-88
2022/12/23 00:07:49;;;;;;;;;;;7.10;91.60;;;;;;5073772;28;19961;-88
2022/12/23 00:10:14;;;;;;;;;;;6.90;92.30;;;;;;5073045;28;19952;-88
2022/12/23 00:15:24;;;;;;;;;;;6.70;92.90;;;;;;5073773;28;19944;-88
2022/12/23 00:17:49;;;;;;;;;;;6.70;93.00;;;;;;5073642;28;19937;-88
2022/12/23 00:20:15;;;;;;;;;;;6.70;93.00;;;;;;5072317;28;20034;-88
2022/12/23 00:25:39;;;;;;;;;;;6.90;93.10;;;;;;5073578;28;19958;-88
2022/12/23 00:28:05;;;;;;;;;;;6.90;93.20;;;;;;5073369;28;20505;-88
2022/12/23 00:30:31;;;;;;;;;;;6.90;93.20;;;;;;5072914;28;19967;-88
2022/12/23 00:32:56;;;;;;;;;;;7.00;93.20;;;;;;5073415;28;20447;-89
2022/12/23 00:35:22;;;;;;;;;;;7.00;92.90;;;;;;5072107;28;20034;-89
2022/12/23 00:37:47;;;;;;;;;;;7.00;92.70;;;;;;5073350;28;20582;-88
2022/12/23 00:42:58;;;;;;;;;;;7.10;92.60;;;;;;5072771;28;19949;-89
2022/12/23 00:45:23;;;;;;;;;;;7.00;92.50;;;;;;5072973;28;19986;-88
2022/12/23 00:50:37;;;;;;;;;;;7.10;92.40;;;;;;5071798;28;20303;-88
2022/12/23 00:53:03;;;;;;;;;;;7.00;92.10;;;;;;5072980;28;20048;-88
2022/12/23 00:55:29;;;;;;;;;;;7.00;92.30;;;;;;5073113;28;19944;-88
2022/12/23 00:57:54;;;;;;;;;;;7.10;92.20;;;;;;5072321;28;19949;-88
2022/12/23 01:05:35;;;;;;;;;;;7.10;92.10;;;;;;5055091;28;20035;-88
2022/12/23 01:05:50;;;;;;;;;;;7.00;92.20;;;;;;5071721;28;19969;-88
2022/12/23 01:08:15;;;;;;;;;;;7.10;92.20;;;;;;5072978;28;20396;-88
2022/12/23 01:10:41;;;;;;;;;;;7.10;92.30;;;;;;5073044;28;19941;-88
2022/12/23 01:13:06;;;;;;;;;;;7.10;92.20;;;;;;5072806;28;19951;-88
2022/12/23 01:15:32;;;;;;;;;;;7.10;92.30;;;;;;5071974;28;19948;-88
2022/12/23 01:17:57;;;;;;;;;;;7.20;92.30;;;;;;5072817;28;19952;-88
2022/12/23 01:20:23;;;;;;;;;;;7.30;92.30;;;;;;5054221;28;19947;-88
2022/12/23 01:22:49;;;;;;;;;;;7.60;91.80;;;;;;5072782;28;20430;-88
2022/12/23 01:25:15;;;;;;;;;;;7.70;91.10;;;;;;5072088;28;20031;-88
2022/12/23 01:27:40;;;;;;;;;;;7.80;90.60;;;;;;5072735;28;19973;-88
2022/12/23 01:30:06;;;;;;;;;;;7.80;90.40;;;;;;5072852;28;19940;-88
2022/12/23 01:32:33;;;;;;;;;;;7.80;89.70;;;;;;5072369;28;20521;-88
2022/12/23 01:34:59;;;;;;;;;;;7.50;89.90;;;;;;5070703;28;19937;-89
2022/12/23 01:37:24;;;;;;;;;;;7.50;90.20;;;;;;5072768;28;20347;-89
2022/12/23 01:39:50;;;;;;;;;;;7.50;90.20;;;;;;5072759;28;20340;-89
2022/12/23 01:45:00;;;;;;;;;;;7.40;90.50;;;;;;5042480;28;20437;-88
2022/12/23 01:47:37;;;;;;;;;;;7.40;90.20;;;;;;5072866;28;20430;-88
2022/12/23 01:50:08;;;;;;;;;;;7.40;90.10;;;;;;5071879;28;19941;-88
2022/12/23 01:52:40;;;;;;;;;;;7.40;90.20;;;;;;5071613;28;19970;-88
2022/12/23 01:55:06;;;;;;;;;;;7.50;90.30;;;;;;5071673;28;19950;-88
2022/12/23 01:57:32;;;;;;;;;;;7.60;89.80;;;;;;5071895;28;19948;-88
2022/12/23 02:05:26;;;;;;;;;;;7.20;90.60;;;;;;5071455;28;19957;-88
2022/12/23 02:10:55;;;;;;;;;;;6.90;91.30;;;;;;5073773;28;19945;-88
2022/12/23 02:16:15;;;;;;;;;;;6.80;91.80;;;;;;5075770;28;19997;-87
2022/12/23 02:16:31;;;;;;;;;;;6.70;92.30;;;;;;5075147;28;19946;-88
2022/12/23 02:19:15;;;;;;;;;;;6.60;92.50;;;;;;5075602;28;19969;-88
2022/12/23 02:21:40;;;;;;;;;;;6.70;92.80;;;;;;5082034;22;19981;-88
2022/12/23 02:24:24;;;;;;;;;;;6.80;92.90;;;;;;5075823;28;20035;-88
2022/12/23 02:27:05;;;;;;;;;;;7.00;92.80;;;;;;5094457;28;19959;-88
2022/12/23 02:29:49;;;;;;;;;;;7.20;92.40;;;;;;5096067;28;19984;-88
2022/12/23 02:32:19;;;;;;;;;;;7.40;92.10;;;;;;5096004;28;19940;-88
2022/12/23 02:34:47;;;;;;;;;;;7.50;91.80;;;;;;5093154;28;20031;-88
2022/12/23 02:37:13;;;;;;;;;;;7.60;91.20;;;;;;5096111;28;19945;-88
2022/12/23 02:39:43;;;;;;;;;;;7.70;90.80;;;;;;5081116;28;19944;-88
2022/12/23 02:42:14;;;;;;;;;;;7.70;90.40;;;;;;5075438;28;19943;-88
2022/12/23 02:44:51;;;;;;;;;;;7.60;90.00;;;;;;5074929;28;19941;-88
2022/12/23 02:47:39;;;;;;;;;;;7.50;89.90;;;;;;5095612;28;19964;-88
2022/12/23 02:50:08;;;;;;;;;;;7.30;90.20;;;;;;5075254;28;20393;-88
2022/12/23 02:52:35;;;;;;;;;;;7.30;90.70;;;;;;5095454;28;19938;-88
2022/12/23 02:55:05;;;;;;;;;;;7.20;90.90;;;;;;5093477;28;19976;-88
2022/12/23 02:57:36;;;;;;;;;;;7.30;91.10;;;;;;5095840;28;19943;-88
2022/12/23 03:00:02;;;;;;;;;;;7.20;91.00;;;;;;5095483;28;19994;-88
2022/12/23 03:02:30;;;;;;;;;;;7.30;91.00;;;;;;5095391;28;19940;-88
2022/12/23 03:04:56;;;;;;;;;;;7.40;90.90;;;;;;5090056;28;19951;-88
2022/12/23 03:07:32;;;;;;;;;;;7.50;90.60;;;;;;5095271;28;19967;-88
2022/12/23 03:10:04;;;;;;;;;;;7.50;90.40;;;;;;5095293;28;19940;-88
2022/12/23 03:12:48;;;;;;;;;;;7.50;90.40;;;;;;5095209;28;19940;-88
2022/12/23 03:15:13;;;;;;;;;;;7.70;89.90;;;;;;5093287;28;19951;-88
2022/12/23 03:18:11;;;;;;;;;;;7.90;88.90;;;;;;5093636;28;19944;-89
2022/12/23 03:20:47;;;;;;;;;;;7.90;87.80;;;;;;5036201;28;19938;-88
2022/12/23 03:23:22;;;;;;;;;;;7.80;87.90;;;;;;5093803;28;20635;-89
2022/12/23 03:26:09;;;;;;;;;;;7.70;88.20;;;;;;5094893;28;20459;-89
2022/12/23 03:28:47;;;;;;;;;;;7.60;88.60;;;;;;5094943;28;19944;-88
2022/12/23 03:31:15;;;;;;;;;;;7.50;89.10;;;;;;5093226;28;19949;-88
2022/12/23 03:33:42;;;;;;;;;;;7.70;88.50;;;;;;5094772;28;19939;-88
2022/12/23 03:36:13;;;;;;;;;;;7.50;88.50;;;;;;5087026;28;19941;-88
2022/12/23 03:38:40;;;;;;;;;;;7.40;89.00;;;;;;5094729;28;19939;-88
2022/12/23 03:41:08;;;;;;;;;;;7.40;89.50;;;;;;5093009;28;19951;-88
2022/12/23 03:43:42;;;;;;;;;;;7.20;89.80;;;;;;5094619;28;20408;-88
2022/12/23 03:46:09;;;;;;;;;;;7.10;89.90;;;;;;5094477;28;20352;-88
2022/12/23 03:48:37;;;;;;;;;;;6.90;90.20;;;;;;5094505;28;19938;-88
2022/12/23 03:51:09;;;;;;;;;;;7.00;90.50;;;;;;5091250;28;20037;-88
2022/12/23 03:53:41;;;;;;;;;;;7.00;90.60;;;;;;5094291;28;20427;-88
2022/12/23 03:56:09;;;;;;;;;;;7.10;90.70;;;;;;5078318;28;19944;-88
2022/12/23 03:58:41;;;;;;;;;;;7.10;90.90;;;;;;5073934;28;20395;-88
2022/12/23 04:01:25;;;;;;;;;;;7.10;91.10;;;;;;5082456;28;19948;-88
2022/12/23 04:03:59;;;;;;;;;;;7.20;91.10;;;;;;5094239;28;19937;-88
2022/12/23 04:06:25;;;;;;;;;;;7.30;91.10;;;;;;5091870;28;19995;-88
2022/12/23 04:08:52;;;;;;;;;;;7.40;90.60;;;;;;5094163;28;19938;-88
2022/12/23 04:11:17;;;;;;;;;;;7.30;90.30;;;;;;5092173;28;19992;-88
2022/12/23 04:13:45;;;;;;;;;;;7.30;90.60;;;;;;5082623;28;19990;-88
2022/12/23 04:16:11;;;;;;;;;;;7.30;90.60;;;;;;5073738;28;19944;-89
2022/12/23 04:18:36;;;;;;;;;;;7.30;90.60;;;;;;5073757;28;19938;-88
2022/12/23 04:21:02;;;;;;;;;;;7.40;90.60;;;;;;5074049;28;19987;-88
2022/12/23 04:23:27;;;;;;;;;;;7.40;90.50;;;;;;5073503;28;20441;-88
2022/12/23 04:25:53;;;;;;;;;;;7.60;89.90;;;;;;5073582;28;20037;-88
2022/12/23 04:28:19;;;;;;;;;;;7.50;89.50;;;;;;5073588;28;20023;-88
2022/12/23 04:30:45;;;;;;;;;;;7.40;89.70;;;;;;5074173;28;20404;-88
2022/12/23 04:33:11;;;;;;;;;;;7.40;90.10;;;;;;5093492;28;20005;-88
2022/12/23 04:35:36;;;;;;;;;;;7.30;90.30;;;;;;5092931;28;20006;-88
2022/12/23 04:38:02;;;;;;;;;;;7.20;90.60;;;;;;5092329;28;20403;-88
2022/12/23 04:40:27;;;;;;;;;;;7.30;90.80;;;;;;5092235;28;19943;-88
2022/12/23 04:42:53;;;;;;;;;;;7.50;90.70;;;;;;5093515;28;19946;-88
2022/12/23 04:45:19;;;;;;;;;;;7.70;90.40;;;;;;5093628;28;19941;-88
2022/12/23 04:47:44;;;;;;;;;;;7.70;89.90;;;;;;5093474;28;20033;-88
2022/12/23 04:50:13;;;;;;;;;;;7.50;89.90;;;;;;5093510;28;20408;-88
2022/12/23 04:52:38;;;;;;;;;;;7.50;90.00;;;;;;5075138;28;20007;-88
2022/12/23 04:55:04;;;;;;;;;;;7.40;89.90;;;;;;5073098;28;20035;-89
2022/12/23 04:57:30;;;;;;;;;;;7.40;90.00;;;;;;5073147;28;20018;-89
2022/12/23 04:59:55;;;;;;;;;;;7.40;90.10;;;;;;5073157;28;19947;-88
2022/12/23 05:02:21;;;;;;;;;;;7.40;90.10;;;;;;5087737;28;20007;-88
2022/12/23 05:04:46;;;;;;;;;;;7.40;90.20;;;;;;5093299;28;20371;-88
2022/12/23 05:07:12;;;;;;;;;;;7.40;90.40;;;;;;5083536;28;19962;-88
2022/12/23 05:09:37;;;;;;;;;;;7.60;90.30;;;;;;5093266;28;19943;-89
2022/12/23 05:12:03;;;;;;;;;;;7.70;90.00;;;;;;5091331;28;19947;-88
2022/12/23 05:14:28;;;;;;;;;;;7.80;89.00;;;;;;5093157;28;19940;-88
2022/12/23 05:16:54;;;;;;;;;;;7.70;88.90;;;;;;5093142;28;20458;-87
2022/12/23 05:19:19;;;;;;;;;;;7.50;89.20;;;;;;5093147;28;20388;-88
2022/12/23 05:21:45;;;;;;;;;;;7.40;90.10;;;;;;5081179;28;20450;-88
2022/12/23 05:24:10;;;;;;;;;;;7.30;90.20;;;;;;5072360;28;20420;-88
2022/12/23 05:26:36;;;;;;;;;;;7.20;90.50;;;;;;5072764;28;20478;-88
2022/12/23 05:29:02;;;;;;;;;;;7.20;90.50;;;;;;5072887;28;20459;-88
2022/12/23 05:31:27;;;;;;;;;;;7.20;90.60;;;;;;5077733;28;19953;-89
2022/12/23 05:33:53;;;;;;;;;;;7.30;90.90;;;;;;5089749;28;19972;-88
2022/12/23 05:36:18;;;;;;;;;;;7.10;91.00;;;;;;5090657;28;19994;-88
2022/12/23 05:38:44;;;;;;;;;;;7.00;91.40;;;;;;5093001;28;19984;-88
2022/12/23 05:41:09;;;;;;;;;;;7.10;91.40;;;;;;5085891;28;20042;-88
2022/12/23 05:43:35;;;;;;;;;;;7.00;91.80;;;;;;5092928;28;19992;-88
2022/12/23 05:46:00;;;;;;;;;;;7.00;91.80;;;;;;5094871;28;20294;-88
2022/12/23 05:48:26;;;;;;;;;;;7.00;91.80;;;;;;5078684;28;19932;-89
2022/12/23 05:50:52;;;;;;;;;;;6.90;91.70;;;;;;5093530;28;19936;-88
2022/12/23 05:53:18;;;;;;;;;;;6.90;91.90;;;;;;5096645;28;19960;-88
2022/12/23 05:55:43;;;;;;;;;;;6.90;92.00;;;;;;5087534;28;20380;-88
2022/12/23 05:58:09;;;;;;;;;;;6.90;92.20;;;;;;5076119;28;19947;-88
2022/12/23 06:00:35;;;;;;;;;;;6.70;92.40;;;;;;5076275;28;20450;-88
2022/12/23 06:03:00;;;;;;;;;;;6.70;92.60;;;;;;5092769;28;20035;-88
2022/12/23 06:05:26;;;;;;;;;;;6.70;92.60;;;;;;5092848;28;19990;-88
2022/12/23 06:07:51;;;;;;;;;;;6.70;92.60;;;;;;5090202;28;20011;-88
2022/12/23 06:10:17;;;;;;;;;;;6.70;92.70;;;;;;5094327;28;19938;-88
2022/12/23 06:12:42;;;;;;;;;;;6.80;92.90;;;;;;5047382;28;19953;-88
2022/12/23 06:15:08;;;;;;;;;;;6.80;92.90;;;;;;5065293;28;19960;-88
2022/12/23 06:17:34;;;;;;;;;;;6.80;92.90;;;;;;5063197;28;19941;-88
2022/12/23 06:19:59;;;;;;;;;;;6.80;92.70;;;;;;5073437;28;20019;-88
2022/12/23 06:22:25;;;;;;;;;;;6.80;92.60;;;;;;5086775;28;20069;-89
2022/12/23 06:24:50;;;;;;;;;;;6.90;92.60;;;;;;5075045;28;19944;-88
2022/12/23 06:27:16;;;;;;;;;;;6.90;92.50;;;;;;5074087;28;20335;-88
2022/12/23 06:29:42;;;;;;;;;;;6.90;92.40;;;;;;5074456;28;20395;-88
2022/12/23 06:32:07;;;;;;;;;;;6.90;92.30;;;;;;5070140;28;19950;-88
2022/12/23 06:34:33;;;;;;;;;;;6.90;92.40;;;;;;5082859;28;19948;-88
2022/12/23 06:36:58;;;;;;;;;;;7.00;92.30;;;;;;5077278;28;19948;-88
2022/12/23 06:39:24;;;;;;;;;;;7.00;92.20;;;;;;5072068;28;19943;-88
2022/12/23 06:41:50;;;;;;;;;;;6.90;92.30;;;;;;5072890;28;19948;-88
2022/12/23 06:44:15;;;;;;;;;;;7.00;92.20;;;;;;5072419;28;19955;-88
2022/12/23 06:46:41;;;;;;;;;;;7.00;92.30;;;;;;5055388;28;19954;-88
2022/12/23 06:49:06;;;;;;;;;;;7.00;92.30;;;;;;5075803;28;19971;-88
2022/12/23 06:51:32;;;;;;;;;;;7.00;92.20;;;;;;5070159;28;20954;-88
2022/12/23 06:53:58;;;;;;;;;;;7.10;92.10;;;;;;5071815;28;19958;-88
2022/12/23 06:56:23;;;;;;;;;;;7.00;92.20;;;;;;5073382;28;20398;-88
2022/12/23 06:58:51;;;;;;;;;;;7.10;92.30;;;;;;5075282;28;19954;-88
2022/12/23 07:01:17;;;;;;;;;;;7.10;92.30;;;;;;5067552;28;19946;-88
2022/12/23 07:03:42;;;;;;;;;;;7.10;92.30;;;;;;5073969;28;19950;-89
2022/12/23 07:06:08;;;;;;;;;;;7.30;92.30;;;;;;5074174;28;19942;-88
2022/12/23 07:08:33;;;;;;;;;;;7.40;92.20;;;;;;5072196;28;19941;-88
2022/12/23 07:11:00;;;;;;;;;;;7.60;91.90;;;;;;5070690;28;19979;-88
2022/12/23 07:13:25;;;;;;;;;;;7.60;91.70;;;;;;5070610;28;19956;-88
2022/12/23 07:15:51;;;;;;;;;;;7.60;91.10;;;;;;5072607;28;19944;-88
2022/12/23 07:18:17;;;;;;;;;;;7.40;91.40;;;;;;5052381;28;20005;-88
2022/12/23 07:20:42;;;;;;;;;;;7.40;91.30;;;;;;5067075;28;20001;-88
2022/12/23 07:23:08;;;;;;;;;;;7.40;91.30;;;;;;5062798;28;20013;-88
2022/12/23 07:25:33;;;;;;;;;;;7.30;91.40;;;;;;5065164;28;19944;-88
2022/12/23 07:27:59;;;;;;;;;;;7.20;91.80;;;;;;5071715;28;19983;-88
2022/12/23 07:30:25;;;;;;;;;;;7.30;91.70;;;;;;5066429;28;19996;-88
2022/12/23 07:32:50;;;;;;;;;;;7.40;91.80;;;;;;5065224;28;20373;-88
2022/12/23 07:35:16;;;;;;;;;;;7.50;91.80;;;;;;5073535;28;21683;-88
2022/12/23 07:37:42;;;;;;;;;;;7.70;91.60;;;;;;5068960;28;20030;-88
2022/12/23 07:40:08;;;;;;;;;;;7.90;91.10;;;;;;5068078;28;20035;-88
2022/12/23 07:42:33;;;;;;;;;;;8.00;90.40;;;;;;5075282;28;20446;-88
2022/12/23 07:44:59;;;;;;;;;;;8.00;90.30;;;;;;5073646;28;19953;-89
2022/12/23 07:47:25;;;;;;;;;;;7.80;90.10;;;;;;5068694;28;19944;-89
2022/12/23 07:49:50;;;;;;;;;;;7.70;90.50;;;;;;5067759;28;19952;-88
2022/12/23 07:52:16;;;;;;;;;;;7.70;90.30;;;;;;5071420;28;20133;-88
2022/12/23 07:54:41;;;;;;;;;;;7.70;90.50;;;;;;5064279;28;19954;-88
2022/12/23 07:57:07;;;;;;;;;;;7.60;90.70;;;;;;5067952;28;20359;-88
2022/12/23 07:59:32;;;;;;;;;;;7.60;91.00;;;;;;5069986;28;19968;-88
2022/12/23 08:01:58;;;;;;;;;;;7.60;91.20;;;;;;5064786;28;20839;-88
2022/12/23 08:04:23;;;;;;;;;;;7.50;91.30;;;;;;5066307;28;19944;-88
2022/12/23 08:06:49;;;;;;;;;;;7.50;91.50;;;;;;5072400;28;19971;-88
2022/12/23 08:09:15;;;;;;;;;;;7.40;91.70;;;;;;5069017;28;20321;-88
2022/12/23 08:11:40;;;;;;;;;;;7.40;91.80;;;;;;5061977;28;19954;-88
2022/12/23 08:14:06;;;;;;;;;;;7.50;92.00;;;;;;5070699;28;20353;-88
2022/12/23 08:16:32;;;;;;;;;;;7.50;92.00;;;;;;5049538;28;20443;-88
2022/12/23 08:18:57;;;;;;;;;;;7.50;92.00;;;;;;5070621;28;19949;-88
2022/12/23 08:21:23;;;;;;;;;;;7.60;92.10;;;;;;5073130;28;20395;-88
2022/12/23 08:23:49;;;;;;;;;;;7.70;92.20;;;;;;5068932;28;20351;-89
2022/12/23 08:26:16;;;;;;;;;;;7.70;92.30;;;;;;5052908;28;19952;-88
2022/12/23 08:28:43;;;;;;;;;;;7.90;92.00;;;;;;5068962;28;19944;-88
2022/12/23 08:31:08;;;;;;;;;;;7.90;91.80;;;;;;5057963;28;19944;-88
2022/12/23 08:33:35;;;;;;;;;;;7.80;91.70;;;;;;5068339;28;20420;-88
2022/12/23 08:36:01;;;;;;;;;;;7.80;91.70;;;;;;5069738;28;19946;-88
2022/12/23 08:38:27;;;;;;;;;;;7.80;91.60;;;;;;5075716;28;19947;-88
2022/12/23 08:40:52;;;;;;;;;;;7.70;91.80;;;;;;5065374;28;19946;-88
2022/12/23 08:43:18;;;;;;;;;;;7.70;91.90;;;;;;5069103;28;19948;-88
2022/12/23 08:45:43;;;;;;;;;;;7.70;92.10;;;;;;5073224;28;19947;-88
2022/12/23 08:48:09;;;;;;;;;;;7.80;92.50;;;;;;5070256;28;20039;-88
2022/12/23 08:50:38;;;;;;;;;;;7.90;92.30;;;;;;5080032;28;19939;-88
2022/12/23 08:53:04;;;;;;;;;;;8.00;92.00;;;;;;5067924;28;19967;-88
2022/12/23 08:55:30;;;;;;;;;;;8.30;91.80;;;;;;5067591;28;19990;-87
2022/12/23 08:57:55;;;;;;;;;;;8.30;91.30;;;;;;5077464;28;19980;-88
2022/12/23 09:00:21;;;;;;;;;;;8.40;91.20;;;;;;5069527;28;20461;-88
2022/12/23 09:02:46;;;;;;;;;;;8.40;91.00;;;;;;5069761;28;19949;-88
2022/12/23 09:05:12;;;;;;;;;;;8.40;90.90;;;;;;5071612;28;20403;-88
2022/12/23 09:07:37;;;;;;;;;;;8.40;90.10;;;;;;5068540;28;20053;-88
2022/12/23 09:10:03;;;;;;;;;;;8.40;89.70;;;;;;5071453;28;20300;-88
2022/12/23 09:12:29;;;;;;;;;;;8.40;89.70;;;;;;5070094;28;20869;-88
2022/12/23 09:14:54;;;;;;;;;;;8.40;89.60;;;;;;5068758;28;20390;-88
2022/12/23 09:17:20;;;;;;;;;;;8.50;89.70;;;;;;5068176;28;20016;-88
2022/12/23 09:19:45;;;;;;;;;;;8.70;89.50;;;;;;5070778;28;19948;-88
2022/12/23 09:22:12;;;;;;;;;;;8.70;88.90;;;;;;5075037;28;20280;-88
2022/12/23 09:24:38;;;;;;;;;;;8.70;88.40;;;;;;5076378;28;19941;-88
2022/12/23 09:27:03;;;;;;;;;;;8.70;87.90;;;;;;5076322;28;19971;-88
2022/12/23 09:29:29;;;;;;;;;;;8.90;88.20;;;;;;5086377;28;19941;-88
2022/12/23 09:31:54;;;;;;;;;;;9.00;87.80;;;;;;5076618;28;20394;-88
2022/12/23 09:34:20;;;;;;;;;;;9.20;86.80;;;;;;5082199;28;20315;-88
2022/12/23 09:36:45;;;;;;;;;;;9.40;85.60;;;;;;5084025;28;20025;-88
2022/12/23 09:39:11;;;;;;;;;;;9.40;84.90;;;;;;5073967;28;20440;-88
2022/12/23 09:42:00;;;;;;;;;;;9.40;85.30;;;;;;5077629;28;20021;-88
2022/12/23 09:44:31;;;;;;;;;;;9.30;85.60;;;;;;5082589;28;19992;-88
2022/12/23 09:46:59;;;;;;;;;;;9.40;86.40;;;;;;5072844;28;19958;-88
2022/12/23 09:49:25;;;;;;;;;;;9.40;85.80;;;;;;5072489;28;20038;-88
2022/12/23 09:51:52;;;;;;;;;;;9.50;85.90;;;;;;5069233;28;20034;-88
2022/12/23 09:54:21;;;;;;;;;;;9.50;85.50;;;;;;5072031;28;19950;-88
2022/12/23 09:57:07;;;;;;;;;;;9.60;85.40;;;;;;5076903;28;19952;-88
2022/12/23 09:59:35;;;;;;;;;;;9.60;85.10;;;;;;5075778;28;19944;-88
2022/12/23 10:02:10;;;;;;;;;;;9.70;84.70;;;;;;5074324;28;19952;-88
2022/12/23 10:04:38;;;;;;;;;;;9.60;84.20;;;;;;5070919;28;19945;-88
2022/12/23 10:07:04;;;;;;;;;;;9.60;84.80;;;;;;5069313;28;19966;-89
2022/12/23 10:09:31;;;;;;;;;;;9.70;84.90;;;;;;5090637;28;20410;-88
2022/12/23 10:11:58;;;;;;;;;;;9.60;84.90;;;;;;5074114;28;19953;-88
2022/12/23 10:14:27;;;;;;;;;;;9.70;85.00;;;;;;5074592;28;20441;-88
2022/12/23 10:17:01;;;;;;;;;;;9.60;85.40;;;;;;5071474;28;20895;-88
2022/12/23 10:19:40;;;;;;;;;;;9.70;85.40;;;;;;5066308;28;19947;-88
2022/12/23 10:22:16;;;;;;;;;;;9.50;84.70;;;;;;5028513;22;19993;-88
2022/12/23 10:24:45;;;;;;;;;;;9.50;85.20;;;;;;4990934;28;20108;-88
2022/12/23 10:27:14;;;;;;;;;;;9.50;85.50;;;;;;4990438;28;19961;-88
2022/12/23 10:29:40;;;;;;;;;;;9.70;85.50;;;;;;4990694;28;20039;-88
2022/12/23 10:32:05;;;;;;;;;;;9.90;84.80;;;;;;4992509;28;19943;-88
2022/12/23 10:34:37;;;;;;;;;;;10.10;84.20;;;;;;4989379;28;19962;-88
2022/12/23 10:37:10;;;;;;;;;;;10.10;84.40;;;;;;4990608;28;19947;-88
2022/12/23 10:39:43;;;;;;;;;;;10.30;83.90;;;;;;4990301;28;19964;-88
2022/12/23 10:42:20;;;;;;;;;;;10.40;83.30;;;;;;4984482;28;19958;-88
2022/12/23 10:45:03;;;;;;;;;;;10.40;82.90;;;;;;4989120;28;20367;-88
2022/12/23 10:47:31;;;;;;;;;;;10.30;82.80;;;;;;4986935;28;19964;-88
2022/12/23 10:50:12;;;;;;;;;;;10.20;83.50;;;;;;4995023;28;20038;-88
2022/12/23 10:52:39;;;;;;;;;;;10.20;83.60;;;;;;4989168;28;19963;-88
2022/12/23 10:55:05;;;;;;;;;;;10.10;83.90;;;;;;4988882;28;19941;-88
2022/12/23 10:57:31;;;;;;;;;;;10.20;84.00;;;;;;4994195;28;19951;-88
2022/12/23 10:59:57;;;;;;;;;;;10.30;84.50;;;;;;4994986;28;20293;-88
2022/12/23 11:02:22;;;;;;;;;;;10.40;83.50;;;;;;4991512;28;20066;-88
2022/12/23 11:04:48;;;;;;;;;;;10.60;83.30;;;;;;4990705;28;20017;-88
2022/12/23 11:07:21;;;;;;;;;;;10.60;83.30;;;;;;4991288;28;20065;-88
2022/12/23 11:09:49;;;;;;;;;;;10.90;82.40;;;;;;4992986;28;20006;-88
2022/12/23 11:12:20;;;;;;;;;;;11.20;81.70;;;;;;4992829;28;19946;-89
2022/12/23 11:14:50;;;;;;;;;;;11.40;80.60;;;;;;4995380;28;20421;-88
2022/12/23 11:17:29;;;;;;;;;;;11.40;80.20;;;;;;4994555;28;20090;-88
2022/12/23 11:20:10;;;;;;;;;;;11.30;80.00;;;;;;4995215;28;19946;-88
2022/12/23 11:22:45;;;;;;;;;;;11.10;80.60;;;;;;5018368;28;19982;-88
2022/12/23 11:25:36;;;;;;;;;;;11.10;80.90;;;;;;5034791;28;19943;-88
2022/12/23 11:28:05;;;;;;;;;;;11.10;81.00;;;;;;5030354;28;19939;-88
2022/12/23 11:30:32;;;;;;;;;;;11.40;80.50;;;;;;5034745;28;20033;-88
2022/12/23 11:32:57;;;;;;;;;;;11.70;78.80;;;;;;5034761;28;19943;-88
2022/12/23 11:35:25;;;;;;;;;;;11.90;78.50;;;;;;5034653;28;19940;-88
2022/12/23 11:37:50;;;;;;;;;;;12.20;77.20;;;;;;5032643;28;20000;-89
2022/12/23 11:40:26;;;;;;;;;;;12.30;76.60;;;;;;5034364;28;20043;-89
2022/12/23 11:43:02;;;;;;;;;;;12.60;76.30;;;;;;5033654;28;19975;-88
2022/12/23 11:45:34;;;;;;;;;;;12.50;74.10;;;;;;5034775;28;19987;-88
2022/12/23 11:48:01;;;;;;;;;;;12.50;75.60;;;;;;5032359;28;19953;-88
2022/12/23 11:50:26;;;;;;;;;;;12.50;74.70;;;;;;5031840;28;19976;-88
2022/12/23 11:52:55;;;;;;;;;;;12.80;74.60;;;;;;5032715;28;20416;-88
2022/12/23 11:55:25;;;;;;;;;;;12.80;72.90;;;;;;5031431;28;20064;-88
2022/12/23 11:57:51;;;;;;;;;;;12.90;73.60;;;;;;5031275;28;20609;-88
2022/12/23 12:00:17;;;;;;;;;;;13.60;71.10;;;;;;5033453;28;19952;-89
2022/12/23 12:02:43;;;;;;;;;;;13.60;70.00;;;;;;5029604;28;19962;-89
2022/12/23 12:05:15;;;;;;;;;;;13.50;69.30;;;;;;5032845;28;19949;-88
2022/12/23 12:07:41;;;;;;;;;;;13.50;69.80;;;;;;5032708;28;19961;-89
2022/12/23 12:10:12;;;;;;;;;;;13.40;69.70;;;;;;5032800;28;19944;-89
2022/12/23 12:12:39;;;;;;;;;;;13.30;70.10;;;;;;5033395;28;20414;-88
2022/12/23 12:15:05;;;;;;;;;;;12.40;71.90;;;;;;5033169;28;19957;-88
2022/12/23 12:17:31;;;;;;;;;;;11.90;73.70;;;;;;5032156;28;19978;-88
2022/12/23 12:20:09;;;;;;;;;;;11.80;74.60;;;;;;5032995;28;19979;-88
2022/12/23 12:22:45;;;;;;;;;;;11.90;75.40;;;;;;5030280;28;19951;-88
2022/12/23 12:25:26;;;;;;;;;;;11.90;75.70;;;;;;5029949;28;20040;-89
2022/12/23 12:28:02;;;;;;;;;;;12.00;75.00;;;;;;5031536;28;20013;-89
2022/12/23 12:30:33;;;;;;;;;;;12.00;74.10;;;;;;5019763;28;20399;-89
2022/12/23 12:33:03;;;;;;;;;;;12.10;73.70;;;;;;5024765;28;19982;-89
2022/12/23 12:35:38;;;;;;;;;;;12.20;73.80;;;;;;5025085;28;19947;-89
2022/12/23 12:38:22;;;;;;;;;;;12.20;73.30;;;;;;5026521;28;19976;-89
2022/12/23 12:40:53;;;;;;;;;;;12.20;73.90;;;;;;5024998;28;19951;-89
2022/12/23 12:43:29;;;;;;;;;;;12.40;73.00;;;;;;5023659;28;20495;-89
2022/12/23 12:46:14;;;;;;;;;;;12.50;72.50;;;;;;5023911;28;19937;-89
2022/12/23 12:48:43;;;;;;;;;;;12.50;72.20;;;;;;5025267;28;20031;-89
2022/12/23 12:51:27;;;;;;;;;;;12.40;72.00;;;;;;5025523;28;19955;-88
2022/12/23 12:53:53;;;;;;;;;;;12.10;72.80;;;;;;5028012;28;20043;-88
2022/12/23 12:56:25;;;;;;;;;;;11.60;74.40;;;;;;5033871;28;20088;-88
2022/12/23 12:58:51;;;;;;;;;;;11.30;75.40;;;;;;5030860;28;20450;-88
2022/12/23 13:01:16;;;;;;;;;;;11.20;76.80;;;;;;5033609;28;20040;-88
2022/12/23 13:04:05;;;;;;;;;;;11.00;76.50;;;;;;5027923;28;20026;-88
2022/12/23 13:06:38;;;;;;;;;;;11.00;77.20;;;;;;5017604;28;19956;-88
2022/12/23 13:09:22;;;;;;;;;;;10.90;77.90;;;;;;5026303;28;20440;-89
2022/12/23 13:11:56;;;;;;;;;;;10.90;78.80;;;;;;5028629;28;19949;-89
2022/12/23 13:14:40;;;;;;;;;;;10.90;79.20;;;;;;5021175;28;19943;-87
2022/12/23 13:17:21;;;;;;;;;;;10.80;78.00;;;;;;5024632;28;20381;-88
2022/12/23 13:19:47;;;;;;;;;;;10.80;78.50;;;;;;5024378;28;20476;-88
2022/12/23 13:22:16;;;;;;;;;;;10.90;78.90;;;;;;5025691;28;19981;-88
2022/12/23 13:25:00;;;;;;;;;;;10.80;78.80;;;;;;5023869;28;19953;-87
2022/12/23 13:27:42;;;;;;;;;;;10.80;78.60;;;;;;5019272;28;19970;-87
2022/12/23 13:30:13;;;;;;;;;;;10.70;78.50;;;;;;5021045;28;19994;-88
2022/12/23 13:32:55;;;;;;;;;;;10.60;79.50;;;;;;5027456;28;19945;-88
2022/12/23 13:35:21;;;;;;;;;;;10.50;79.40;;;;;;5038386;28;19948;-88
2022/12/23 13:37:51;;;;;;;;;;;10.50;80.00;;;;;;5030099;28;19949;-87
2022/12/23 13:40:32;;;;;;;;;;;10.70;80.20;;;;;;5026969;28;19948;-89
2022/12/23 13:43:08;;;;;;;;;;;10.70;79.00;;;;;;5027988;28;19946;-88
2022/12/23 13:45:35;;;;;;;;;;;10.70;78.90;;;;;;5027305;28;19968;-88
2022/12/23 13:48:10;;;;;;;;;;;10.90;79.50;;;;;;5030451;28;19962;-88
2022/12/23 13:50:43;;;;;;;;;;;11.10;79.00;;;;;;5028374;28;19945;-89
2022/12/23 13:53:08;;;;;;;;;;;11.20;79.30;;;;;;5027761;28;19959;-88
2022/12/23 13:55:34;;;;;;;;;;;11.10;79.30;;;;;;5022523;28;19952;-88
2022/12/23 13:58:10;;;;;;;;;;;10.90;80.30;;;;;;5024812;28;19948;-88
2022/12/23 14:00:35;;;;;;;;;;;10.60;81.60;;;;;;5023140;28;19947;-88
2022/12/23 14:03:01;;;;;;;;;;;10.40;82.20;;;;;;5025608;28;19968;-88
2022/12/23 14:05:32;;;;;;;;;;;10.10;83.50;;;;;;5026064;28;19997;-88
2022/12/23 14:08:03;;;;;;;;;;;10.00;83.90;;;;;;5030707;28;20056;-88
2022/12/23 14:10:29;;;;;;;;;;;9.90;84.30;;;;;;5029983;28;19943;-88
2022/12/23 14:13:00;;;;;;;;;;;9.90;84.30;;;;;;5026155;28;19954;-88
2022/12/23 14:15:25;;;;;;;;;;;9.90;84.30;;;;;;5026903;28;20323;-88
2022/12/23 14:18:02;;;;;;;;;;;9.90;84.30;;;;;;5029268;28;19940;-88
2022/12/23 14:20:36;;;;;;;;;;;10.00;84.10;;;;;;5029826;28;19999;-88
2022/12/23 14:23:07;;;;;;;;;;;10.30;83.40;;;;;;5024654;28;19983;-88
2022/12/23 14:25:46;;;;;;;;;;;10.40;83.20;;;;;;5028845;28;20018;-88
2022/12/23 14:28:30;;;;;;;;;;;10.40;82.90;;;;;;5031917;28;19960;-88
2022/12/23 14:30:56;;;;;;;;;;;10.40;82.60;;;;;;5030194;28;19951;-88
2022/12/23 14:33:26;;;;;;;;;;;10.40;82.60;;;;;;5030457;28;19947;-89
2022/12/23 14:35:53;;;;;;;;;;;10.40;82.80;;;;;;5028362;28;20080;-88
2022/12/23 14:38:21;;;;;;;;;;;10.30;83.10;;;;;;5026673;28;19944;-89
2022/12/23 14:40:49;;;;;;;;;;;10.20;83.50;;;;;;5030246;28;19968;-88
2022/12/23 14:43:24;;;;;;;;;;;10.10;83.60;;;;;;5028752;28;19940;-89
2022/12/23 14:45:53;;;;;;;;;;;10.20;83.90;;;;;;5027285;28;19974;-88
2022/12/23 14:48:37;;;;;;;;;;;10.30;83.80;;;;;;5028824;28;19980;-89
2022/12/23 14:51:09;;;;;;;;;;;10.40;83.30;;;;;;5029584;28;19942;-89
2022/12/23 14:53:52;;;;;;;;;;;10.40;83.40;;;;;;5029712;28;19964;-88
2022/12/23 14:56:18;;;;;;;;;;;10.40;83.00;;;;;;5032655;28;19953;-88
2022/12/23 14:58:49;;;;;;;;;;;10.40;82.90;;;;;;5026985;28;19952;-88
2022/12/23 15:01:23;;;;;;;;;;;10.40;82.80;;;;;;5032532;28;19947;-87